Skip Navigation LinksHome page > Weather > Current weather Skip Navigation Links

Current Weather

Dorval Intl. Apt., Montréal, P.Q.

For information only: do not use for flight planning or navigation.
Latest weather
Observation time Tuesday, October 19, 2021 5:00 PM EDT
Local time Tuesday, October 19, 2021 5:13 PM EDT
Flight conditions Visual Meteorological Conditions
Winds
Wind direction West (260°)
Wind speed 14 mph
Wind gusting to 22 mph
Visibility 30 mi.
Sky condition
Ceiling 16,000 ft. broken clouds
Cloud layer scattered clouds 8,500 ft.
Cloud layer scattered clouds 15,000 ft.
Cloud layer broken clouds 16,000 ft.
Cloud layer broken clouds 25,000 ft.
Temperature 52°F
Dewpoint 39°F
Altimeter 29.78 in.Hg
Derived measurements
Relative humidity 62%
Density altitude -76 ft.
Sea-level pressure 29.78 in.Hg
METAR CYUL 192100Z 26012G19KT 30SM SCT085 SCT150 BKN160 BKN250 11/04 A2978 RMK AC3AC1AC1CI1 CI TR SLP085

Settings

Location code

InnerDrive.Weather 4.0.6770.0 Release CLR 4.0.30319.42000
Copyright ©2018 Inner Drive Technology. All rights reserved. Portions Copyright ©1986-2018 David Braverman.

Find weather

Site navigation


Skip Navigation Links

Place info

Page info

PayPal - The safer, easier way to pay online!

Return home.

Copyright ©2021 Inner Drive Technology. Purveyors of fine, hand-crafted computer software. Page printed 2021-10-19T21:13:44 UTC.